createdAt,value
2022-12-06T00:01:20.320Z,47.47
2022-12-06T00:03:51.270Z,69.55
2022-12-06T00:06:20.299Z,69.18
2022-12-06T00:08:47.930Z,57.62
2022-12-06T00:11:20.799Z,56.05
2022-12-06T00:13:47.912Z,56.95
2022-12-06T00:16:17.165Z,28.85
2022-12-06T00:18:45.570Z,29.05
2022-12-06T00:21:24.484Z,28.05
2022-12-06T00:24:05.934Z,24.85
2022-12-06T00:26:35.965Z,33.85
2022-12-06T00:29:04.167Z,82.70
2022-12-06T00:31:31.869Z,27.15
2022-12-06T00:33:58.954Z,25.73
2022-12-06T00:36:30.768Z,22.20
2022-12-06T00:39:01.029Z,19.30
2022-12-06T00:41:28.126Z,21.85
2022-12-06T00:43:55.073Z,21.00
2022-12-06T00:46:26.463Z,19.90
2022-12-06T00:48:54.511Z,19.33
2022-12-06T00:51:22.559Z,19.55
2022-12-06T00:53:49.600Z,16.58
2022-12-06T00:56:17.021Z,16.65
2022-12-06T00:58:44.433Z,16.40
2022-12-06T01:01:16.200Z,18.67
2022-12-06T01:03:44.433Z,15.23
2022-12-06T01:06:13.854Z,15.07
2022-12-06T01:08:41.385Z,15.20
2022-12-06T01:11:09.401Z,15.73
2022-12-06T01:13:36.526Z,13.43
2022-12-06T01:16:15.253Z,18.58
2022-12-06T01:18:43.154Z,20.10
2022-12-06T01:21:20.046Z,18.27
2022-12-06T01:23:47.734Z,18.25
2022-12-06T01:26:20.532Z,19.67
2022-12-06T01:28:47.833Z,18.48
2022-12-06T01:31:15.697Z,19.67
2022-12-06T01:33:43.086Z,20.35
2022-12-06T01:36:19.294Z,19.75
2022-12-06T01:38:52.883Z,20.62
2022-12-06T01:41:21.224Z,18.92
2022-12-06T01:43:48.269Z,17.60
2022-12-06T01:46:30.340Z,16.30
2022-12-06T01:49:07.678Z,16.87
2022-12-06T01:51:35.615Z,15.18
2022-12-06T01:54:04.569Z,16.08
2022-12-06T01:56:31.784Z,18.23
2022-12-06T01:58:59.843Z,17.08
2022-12-06T02:01:28.834Z,15.27
2022-12-06T02:03:56.990Z,14.73
2022-12-06T02:06:23.930Z,13.30
2022-12-06T02:08:52.259Z,15.55
2022-12-06T02:11:19.153Z,15.07
2022-12-06T02:13:46.229Z,13.75
2022-12-06T02:16:29.412Z,12.43
2022-12-06T02:19:34.851Z,12.20
2022-12-06T02:22:23.897Z,11.30
2022-12-06T02:25:22.896Z,12.52
2022-12-06T02:27:55.672Z,12.37
2022-12-06T02:30:39.507Z,13.45
2022-12-06T02:33:16.199Z,14.43
2022-12-06T02:36:12.212Z,13.55
2022-12-06T02:39:06.677Z,13.30
2022-12-06T02:41:39.552Z,14.52
2022-12-06T02:44:08.913Z,14.60
2022-12-06T02:46:37.748Z,17.27
2022-12-06T02:49:06.005Z,14.93
2022-12-06T02:51:34.719Z,15.52
2022-12-06T02:54:03.685Z,18.25
2022-12-06T02:56:34.280Z,17.73
2022-12-06T02:59:01.700Z,16.55
2022-12-06T03:01:33.420Z,17.27
2022-12-06T03:04:12.401Z,16.45
2022-12-06T03:07:03.377Z,17.33
2022-12-06T03:09:59.523Z,18.45
2022-12-06T03:12:51.390Z,17.15
2022-12-06T03:15:48.858Z,17.80
2022-12-06T03:18:22.816Z,16.93
2022-12-06T03:21:00.128Z,15.73
2022-12-06T03:26:05.971Z,17.17
2022-12-06T03:28:35.581Z,19.12
2022-12-06T03:31:05.490Z,18.65
2022-12-06T03:33:33.904Z,21.85
2022-12-06T03:36:00.970Z,21.48
2022-12-06T03:38:41.436Z,19.42
2022-12-06T03:41:09.225Z,22.13
2022-12-06T03:43:36.212Z,19.48
2022-12-06T03:46:07.863Z,19.62
2022-12-06T03:48:37.614Z,18.77
2022-12-06T03:51:06.999Z,24.00
2022-12-06T03:53:34.400Z,21.85
2022-12-06T03:56:01.283Z,21.37
2022-12-06T03:58:28.191Z,20.42
2022-12-06T04:00:55.086Z,19.27
2022-12-06T04:03:22.075Z,20.40
2022-12-06T04:05:49.012Z,18.92
2022-12-06T04:08:15.978Z,17.55
2022-12-06T04:10:42.865Z,18.87
2022-12-06T04:13:09.773Z,18.17
2022-12-06T04:15:38.987Z,16.87
2022-12-06T04:18:11.019Z,17.65
2022-12-06T04:21:09.979Z,19.15
2022-12-06T04:23:39.285Z,19.42
2022-12-06T04:26:08.622Z,19.52
2022-12-06T04:28:53.955Z,19.65
2022-12-06T04:31:39.610Z,16.12
2022-12-06T04:34:25.546Z,22.73
2022-12-06T04:37:11.477Z,19.50
2022-12-06T04:39:38.562Z,22.65
2022-12-06T04:42:24.282Z,28.73
2022-12-06T04:44:51.403Z,10.38
2022-12-06T04:47:18.461Z,9.45
2022-12-06T04:49:45.349Z,5.93
2022-12-06T04:52:12.281Z,3.20
2022-12-06T04:54:39.928Z,2.37
2022-12-06T04:57:11.285Z,2.10
2022-12-06T04:59:39.766Z,4.53
2022-12-06T05:02:07.434Z,3.80
2022-12-06T05:04:34.482Z,3.47
2022-12-06T05:07:01.493Z,3.28
2022-12-06T05:09:28.615Z,1.60
2022-12-06T05:11:55.458Z,1.45
2022-12-06T05:14:22.324Z,1.87
2022-12-06T05:16:49.286Z,1.60
2022-12-06T05:19:16.358Z,1.73
2022-12-06T05:21:43.212Z,1.25
2022-12-06T05:24:10.200Z,1.37
2022-12-06T05:26:37.163Z,2.00
2022-12-06T05:29:04.378Z,1.12
2022-12-06T05:31:31.340Z,0.95
2022-12-06T05:33:58.234Z,0.55
2022-12-06T05:36:27.236Z,1.10
2022-12-06T05:38:54.242Z,0.93
2022-12-06T05:41:22.215Z,1.05
2022-12-06T05:43:49.593Z,0.37
2022-12-06T05:46:16.794Z,0.70
2022-12-06T05:48:43.798Z,0.40
2022-12-06T05:51:10.688Z,1.40
2022-12-06T05:53:37.607Z,0.65
2022-12-06T05:56:09.292Z,1.05
2022-12-06T05:58:36.988Z,1.48
2022-12-06T06:01:05.513Z,1.02
2022-12-06T06:03:32.643Z,1.00
2022-12-06T06:06:00.648Z,2.15
2022-12-06T06:08:28.594Z,1.35
2022-12-06T06:10:55.918Z,1.00
2022-12-06T06:13:23.332Z,1.37
2022-12-06T06:15:50.297Z,0.62
2022-12-06T06:18:17.842Z,0.57
2022-12-06T06:20:58.185Z,1.40
2022-12-06T06:23:25.532Z,1.90
2022-12-06T06:25:52.643Z,1.15
2022-12-06T06:28:19.620Z,1.52
2022-12-06T06:30:46.967Z,1.33
2022-12-06T06:33:14.288Z,0.95
2022-12-06T06:35:41.504Z,1.12
2022-12-06T06:38:08.493Z,1.23
2022-12-06T06:40:35.639Z,2.00
2022-12-06T06:43:20.794Z,0.47
2022-12-06T06:45:55.861Z,1.27
2022-12-06T06:48:23.524Z,1.02
2022-12-06T06:50:56.743Z,1.52
2022-12-06T06:53:26.553Z,0.70
2022-12-06T06:55:54.275Z,0.62
2022-12-06T06:58:21.186Z,0.93
2022-12-06T07:00:55.910Z,2.55
2022-12-06T07:03:23.590Z,1.25
2022-12-06T07:05:58.963Z,1.80
2022-12-06T07:08:27.610Z,1.10
2022-12-06T07:10:54.497Z,1.10
2022-12-06T07:13:23.239Z,1.45
2022-12-06T07:15:50.324Z,1.35
2022-12-06T07:18:17.663Z,0.70
2022-12-06T07:20:45.516Z,1.17
2022-12-06T07:23:12.932Z,1.02
2022-12-06T07:25:40.095Z,0.90
2022-12-06T07:28:07.103Z,1.92
2022-12-06T07:30:34.296Z,1.45
2022-12-06T07:33:01.223Z,1.10
2022-12-06T07:38:14.719Z,1.40
2022-12-06T07:41:03.407Z,1.20
2022-12-06T07:43:47.155Z,1.27
2022-12-06T07:46:14.244Z,1.30
2022-12-06T07:48:41.145Z,1.08
2022-12-06T07:51:08.313Z,1.95
2022-12-06T07:53:35.174Z,2.28
2022-12-06T07:56:09.198Z,0.98
2022-12-06T07:58:36.099Z,1.30
2022-12-06T08:01:04.645Z,3.85
2022-12-06T08:03:31.815Z,2.62
2022-12-06T08:05:58.947Z,2.20
2022-12-06T08:08:28.688Z,2.10
2022-12-06T08:10:59.357Z,1.30
2022-12-06T08:13:26.311Z,1.15
2022-12-06T08:15:53.269Z,2.42
2022-12-06T08:18:20.169Z,1.27
2022-12-06T08:20:47.168Z,1.52
2022-12-06T08:23:14.069Z,1.95
2022-12-06T08:25:41.039Z,2.67
2022-12-06T08:28:08.018Z,1.85
2022-12-06T08:30:35.135Z,1.62
2022-12-06T08:33:02.034Z,1.33
2022-12-06T08:35:28.897Z,1.80
2022-12-06T08:37:55.761Z,3.80
2022-12-06T08:40:22.721Z,2.00
2022-12-06T08:42:49.628Z,2.55
2022-12-06T08:45:16.625Z,1.92
2022-12-06T08:47:43.534Z,2.30
2022-12-06T08:50:12.874Z,4.18
2022-12-06T08:52:39.749Z,2.78
2022-12-06T08:55:07.202Z,1.30
2022-12-06T08:57:34.164Z,2.50
2022-12-06T09:00:01.327Z,1.40
2022-12-06T09:02:28.504Z,1.80
2022-12-06T09:04:55.498Z,1.80
2022-12-06T09:07:23.628Z,1.87
2022-12-06T09:09:50.534Z,3.08
2022-12-06T09:12:17.439Z,1.83
2022-12-06T09:14:44.328Z,2.25
2022-12-06T09:17:11.232Z,2.35
2022-12-06T09:19:38.315Z,1.48
2022-12-06T09:22:05.388Z,0.80
2022-12-06T09:24:32.463Z,2.35
2022-12-06T09:26:59.380Z,1.42
2022-12-06T09:29:26.282Z,2.17
2022-12-06T09:31:54.233Z,3.70
2022-12-06T09:34:21.130Z,1.35
2022-12-06T09:36:57.895Z,5.22
2022-12-06T09:39:33.172Z,1.70
2022-12-06T09:42:09.127Z,1.90
2022-12-06T09:44:45.916Z,1.87
2022-12-06T09:47:24.937Z,1.65
2022-12-06T09:50:04.127Z,1.37
2022-12-06T09:53:07.835Z,1.40
2022-12-06T09:55:40.864Z,0.95
2022-12-06T09:58:22.528Z,2.87
2022-12-06T10:00:58.591Z,3.60
2022-12-06T10:04:04.050Z,2.33
2022-12-06T10:06:39.390Z,2.47
2022-12-06T10:09:37.361Z,2.90
2022-12-06T10:12:58.389Z,3.55
2022-12-06T10:16:00.209Z,2.60
2022-12-06T10:18:48.725Z,1.83
2022-12-06T10:21:43.881Z,2.72
2022-12-06T10:24:19.478Z,2.05
2022-12-06T10:26:54.705Z,2.95
2022-12-06T10:29:33.109Z,2.65
2022-12-06T10:32:19.476Z,2.30
2022-12-06T10:34:56.464Z,4.30
2022-12-06T10:38:03.494Z,1.95
2022-12-06T10:40:53.008Z,2.53
2022-12-06T10:43:30.356Z,3.22
2022-12-06T10:49:00.558Z,3.42
2022-12-06T10:51:40.711Z,3.47
2022-12-06T10:54:28.858Z,3.17
2022-12-06T10:56:57.091Z,3.28
2022-12-06T10:59:32.007Z,2.95
2022-12-06T11:02:02.517Z,2.53
2022-12-06T11:04:33.582Z,2.95
2022-12-06T11:07:12.596Z,2.45
2022-12-06T11:09:42.339Z,3.80
2022-12-06T11:12:31.442Z,3.37
2022-12-06T11:15:18.859Z,2.37
2022-12-06T11:17:49.393Z,2.13
2022-12-06T11:20:25.358Z,3.12
2022-12-06T11:23:20.776Z,2.12
2022-12-06T11:25:56.638Z,2.33
2022-12-06T11:28:42.192Z,2.83
2022-12-06T11:31:41.372Z,2.53
2022-12-06T11:34:21.480Z,2.50
2022-12-06T11:36:55.271Z,2.50
2022-12-06T11:39:26.232Z,3.50
2022-12-06T11:41:58.156Z,2.90
2022-12-06T11:44:36.528Z,3.10
2022-12-06T11:47:03.580Z,4.18
2022-12-06T11:49:39.498Z,4.18
2022-12-06T11:52:20.345Z,3.03
2022-12-06T11:54:56.359Z,2.83
2022-12-06T11:57:29.005Z,3.28
2022-12-06T12:00:20.816Z,4.05
2022-12-06T12:02:49.625Z,3.67
2022-12-06T12:05:34.310Z,5.10
2022-12-06T12:08:05.413Z,4.22
2022-12-06T12:10:34.635Z,4.07
2022-12-06T12:13:31.979Z,5.10
2022-12-06T12:16:02.523Z,3.12
2022-12-06T12:18:33.034Z,4.00
2022-12-06T12:21:00.743Z,6.10
2022-12-06T12:23:34.224Z,4.00
2022-12-06T12:26:14.991Z,3.85
2022-12-06T12:28:44.485Z,3.47
2022-12-06T12:31:23.792Z,4.80
2022-12-06T12:34:21.358Z,6.40
2022-12-06T12:36:56.568Z,4.23
2022-12-06T12:39:33.736Z,4.60
2022-12-06T12:42:01.747Z,6.22
2022-12-06T12:44:38.805Z,14.98
2022-12-06T12:47:20.604Z,5.93
2022-12-06T12:50:15.673Z,6.20
2022-12-06T12:52:43.017Z,5.68
2022-12-06T12:55:12.974Z,5.80
2022-12-06T12:57:40.815Z,7.12
2022-12-06T13:00:16.191Z,7.15
2022-12-06T13:02:44.140Z,5.97
2022-12-06T13:05:32.653Z,5.90
2022-12-06T13:08:18.617Z,6.28
2022-12-06T13:10:50.819Z,5.28
2022-12-06T13:13:31.352Z,6.30
2022-12-06T13:15:59.093Z,5.47
2022-12-06T13:18:31.705Z,5.18
2022-12-06T13:21:01.894Z,7.68
2022-12-06T13:23:33.998Z,6.65
2022-12-06T13:26:12.542Z,7.07
2022-12-06T13:28:44.182Z,5.47
2022-12-06T13:31:23.649Z,6.28
2022-12-06T13:33:58.063Z,6.72
2022-12-06T13:36:25.720Z,6.32
2022-12-06T13:38:52.816Z,6.15
2022-12-06T13:41:53.566Z,5.95
2022-12-06T13:44:39.002Z,7.43
2022-12-06T13:47:27.800Z,7.45
2022-12-06T13:49:57.630Z,6.62
2022-12-06T13:52:42.972Z,4.78
2022-12-06T13:55:25.027Z,6.55
2022-12-06T13:58:01.051Z,7.68
2022-12-06T14:00:30.947Z,6.15
2022-12-06T14:03:13.608Z,7.80
2022-12-06T14:06:15.372Z,5.22
2022-12-06T14:08:59.698Z,6.78
2022-12-06T14:11:28.567Z,10.13
2022-12-06T14:13:55.353Z,9.88
2022-12-06T14:19:24.882Z,5.95
2022-12-06T14:22:02.728Z,10.38
2022-12-06T14:24:38.774Z,9.35
2022-12-06T14:27:13.200Z,7.62
2022-12-06T14:29:40.839Z,39.63
2022-12-06T14:32:07.960Z,143.87
2022-12-06T14:34:36.269Z,66.32
2022-12-06T14:37:21.682Z,37.60
2022-12-06T14:39:53.564Z,33.30
2022-12-06T14:42:39.433Z,52.22
2022-12-06T14:45:13.991Z,60.67
2022-12-06T14:47:41.211Z,29.87
2022-12-06T14:50:32.286Z,15.77
2022-12-06T14:53:06.699Z,8.75
2022-12-06T14:55:39.437Z,12.27
2022-12-06T14:58:17.866Z,13.05
2022-12-06T15:00:52.927Z,41.97
2022-12-06T15:03:31.017Z,25.67
2022-12-06T15:06:22.287Z,27.48
2022-12-06T15:08:58.367Z,16.90
2022-12-06T15:11:48.362Z,8.68
2022-12-06T15:14:28.227Z,7.20
2022-12-06T15:17:10.455Z,6.37
2022-12-06T15:19:39.576Z,5.62
2022-12-06T15:22:25.640Z,8.70
2022-12-06T15:24:57.546Z,6.53
2022-12-06T15:27:27.185Z,6.37
2022-12-06T15:29:54.470Z,6.15
2022-12-06T15:32:24.314Z,5.62
2022-12-06T15:34:51.210Z,6.53
2022-12-06T15:40:05.743Z,6.70
2022-12-06T15:42:32.641Z,7.57
2022-12-06T15:44:59.579Z,6.35
2022-12-06T15:47:26.524Z,8.88
2022-12-06T15:49:58.328Z,5.78
2022-12-06T15:52:26.291Z,8.77
2022-12-06T15:54:53.193Z,8.10
2022-12-06T15:57:20.074Z,9.45
2022-12-06T15:59:47.004Z,7.07
2022-12-06T16:02:16.099Z,8.13
2022-12-06T16:04:43.541Z,7.47
2022-12-06T16:07:10.891Z,8.10
2022-12-06T16:09:37.984Z,9.50
2022-12-06T16:12:05.178Z,7.20
2022-12-06T16:14:32.068Z,7.93
2022-12-06T16:16:58.901Z,9.43
2022-12-06T16:22:12.470Z,8.07
2022-12-06T16:24:39.334Z,7.82
2022-12-06T16:27:06.197Z,8.07
2022-12-06T16:29:33.551Z,11.60
2022-12-06T16:32:00.485Z,8.90
2022-12-06T16:34:28.743Z,7.40
2022-12-06T16:37:09.101Z,8.52
2022-12-06T16:39:36.019Z,8.00
2022-12-06T16:42:04.586Z,10.45
2022-12-06T16:44:31.944Z,10.57
2022-12-06T16:46:59.118Z,12.15
2022-12-06T16:49:46.841Z,13.80
2022-12-06T16:52:15.328Z,12.85
2022-12-06T16:54:42.480Z,12.82
2022-12-06T16:57:11.659Z,11.95
2022-12-06T16:59:47.531Z,9.82
2022-12-06T17:02:26.833Z,8.80
2022-12-06T17:04:54.064Z,9.13
2022-12-06T17:07:20.938Z,10.25
2022-12-06T17:09:48.852Z,8.38
2022-12-06T17:12:15.732Z,9.15
2022-12-06T17:14:42.711Z,8.77
2022-12-06T17:17:18.867Z,7.95
2022-12-06T17:19:57.885Z,8.77
2022-12-06T17:22:25.214Z,10.60
2022-12-06T17:24:52.118Z,12.02
2022-12-06T17:27:19.037Z,13.20
2022-12-06T17:29:46.994Z,13.73
2022-12-06T17:32:14.438Z,11.70
2022-12-06T17:34:41.401Z,15.05
2022-12-06T17:37:08.279Z,21.35
2022-12-06T17:39:35.305Z,28.80
2022-12-06T17:42:20.804Z,22.55
2022-12-06T17:44:47.675Z,21.65
2022-12-06T17:47:14.551Z,20.65
2022-12-06T17:49:41.485Z,18.85
2022-12-06T17:52:08.360Z,15.98
2022-12-06T17:54:35.253Z,21.27
2022-12-06T17:57:02.150Z,22.17
2022-12-06T17:59:31.996Z,20.48
2022-12-06T18:02:17.493Z,14.60
2022-12-06T18:04:45.419Z,14.15
2022-12-06T18:07:13.111Z,15.77
2022-12-06T18:09:41.253Z,15.45
2022-12-06T18:12:09.651Z,15.77
2022-12-06T18:14:36.657Z,14.48
2022-12-06T18:17:03.723Z,14.20
2022-12-06T18:19:30.975Z,17.55
2022-12-06T18:21:57.884Z,17.52
2022-12-06T18:24:29.231Z,19.42
2022-12-06T18:27:00.322Z,18.95
2022-12-06T18:29:27.234Z,19.05
2022-12-06T18:31:54.161Z,16.02
2022-12-06T18:34:21.122Z,19.02
2022-12-06T18:36:48.255Z,31.37
2022-12-06T18:39:24.413Z,14.75
2022-12-06T18:41:52.712Z,16.20
2022-12-06T18:44:19.641Z,14.77
2022-12-06T18:46:46.562Z,14.77
2022-12-06T18:49:14.219Z,15.05
2022-12-06T18:51:41.236Z,14.07
2022-12-06T18:54:08.881Z,14.68
2022-12-06T18:56:36.409Z,17.92
2022-12-06T18:59:05.725Z,15.68
2022-12-06T19:01:34.530Z,14.73
2022-12-06T19:04:03.570Z,15.18
2022-12-06T19:06:37.921Z,16.20
2022-12-06T19:09:08.235Z,17.08
2022-12-06T19:11:39.728Z,17.33
2022-12-06T19:14:06.963Z,17.48
2022-12-06T19:16:36.617Z,18.95
2022-12-06T19:19:10.019Z,16.30
2022-12-06T19:21:39.846Z,14.98
2022-12-06T19:24:07.400Z,18.65
2022-12-06T19:26:35.077Z,14.75
2022-12-06T19:29:02.851Z,15.02
2022-12-06T19:31:29.876Z,15.95
2022-12-06T19:33:56.760Z,21.05
2022-12-06T19:36:27.148Z,60.12
2022-12-06T19:38:59.545Z,75.57
2022-12-06T19:41:26.797Z,38.42
2022-12-06T19:44:12.624Z,23.00
2022-12-06T19:46:42.788Z,21.85
2022-12-06T19:49:10.488Z,23.50
2022-12-06T19:51:41.391Z,49.15
2022-12-06T19:54:09.103Z,116.78
2022-12-06T19:56:36.702Z,140.73
2022-12-06T19:59:11.514Z,159.48
2022-12-06T20:01:43.915Z,189.00
2022-12-06T20:04:16.057Z,195.87
2022-12-06T20:06:43.130Z,136.68
2022-12-06T20:09:10.661Z,125.38
2022-12-06T20:11:57.207Z,102.15
2022-12-06T20:14:24.418Z,67.22
2022-12-06T20:16:51.771Z,46.80
2022-12-06T20:19:19.051Z,38.50
2022-12-06T20:21:46.355Z,25.08
2022-12-06T20:24:15.502Z,22.17
2022-12-06T20:26:42.834Z,21.00
2022-12-06T20:29:10.470Z,23.08
2022-12-06T20:31:37.590Z,21.30
2022-12-06T20:34:10.184Z,17.08
2022-12-06T20:36:41.262Z,18.90
2022-12-06T20:39:08.207Z,19.70
2022-12-06T20:41:35.067Z,21.00
2022-12-06T20:44:02.541Z,21.95
2022-12-06T20:46:31.279Z,22.95
2022-12-06T20:49:02.823Z,20.85
2022-12-06T20:51:31.074Z,18.62
2022-12-06T20:53:59.823Z,15.93
2022-12-06T20:56:30.314Z,16.87
2022-12-06T20:59:00.770Z,17.23
2022-12-06T21:01:30.675Z,17.52
2022-12-06T21:03:57.752Z,16.60
2022-12-06T21:06:25.790Z,15.68
2022-12-06T21:08:54.236Z,16.70
2022-12-06T21:11:23.838Z,16.27
2022-12-06T21:13:55.324Z,15.15
2022-12-06T21:16:27.811Z,15.05
2022-12-06T21:18:56.710Z,15.73
2022-12-06T21:21:29.290Z,15.35
2022-12-06T21:23:59.065Z,13.88
2022-12-06T21:26:25.945Z,18.87
2022-12-06T21:28:53.643Z,14.73
2022-12-06T21:31:20.979Z,14.48
2022-12-06T21:33:47.937Z,12.90
2022-12-06T21:36:14.779Z,12.70
2022-12-06T21:41:12.382Z,14.05
2022-12-06T21:43:39.443Z,12.32
2022-12-06T21:46:08.556Z,14.48
2022-12-06T21:48:35.481Z,13.27
2022-12-06T21:51:04.200Z,14.68
2022-12-06T21:53:31.374Z,13.18
2022-12-06T21:55:58.333Z,13.82
2022-12-06T21:58:25.643Z,11.52
2022-12-06T22:00:52.829Z,13.75
2022-12-06T22:03:23.153Z,13.23
2022-12-06T22:05:50.400Z,14.57
2022-12-06T22:10:44.116Z,16.15
2022-12-06T22:13:10.972Z,14.10
2022-12-06T22:18:04.974Z,16.05
2022-12-06T22:20:31.912Z,15.25
2022-12-06T22:22:59.814Z,14.15
2022-12-06T22:25:26.944Z,15.82
2022-12-06T22:27:54.920Z,17.37
2022-12-06T22:30:22.280Z,13.55
2022-12-06T22:32:49.156Z,15.38
2022-12-06T22:35:16.760Z,15.30
2022-12-06T22:37:43.907Z,14.98
2022-12-06T22:40:11.272Z,15.60
2022-12-06T22:42:38.176Z,15.10
2022-12-06T22:45:05.471Z,16.42
2022-12-06T22:47:32.329Z,19.62
2022-12-06T22:52:26.250Z,18.97
2022-12-06T22:57:19.772Z,19.65
2022-12-06T23:02:13.409Z,21.90
2022-12-06T23:04:40.268Z,19.87
2022-12-06T23:09:33.858Z,21.40
2022-12-06T23:12:00.878Z,18.02
2022-12-06T23:14:27.727Z,19.40
2022-12-06T23:19:22.288Z,16.95
2022-12-06T23:21:49.124Z,20.67
2022-12-06T23:26:45.270Z,18.85
2022-12-06T23:29:13.681Z,17.15
2022-12-06T23:31:43.175Z,17.42
2022-12-06T23:34:16.245Z,16.12
2022-12-06T23:36:43.695Z,17.50
2022-12-06T23:39:11.305Z,16.30
2022-12-06T23:41:38.577Z,15.80
2022-12-06T23:44:06.230Z,15.88
2022-12-06T23:46:35.703Z,17.20
2022-12-06T23:49:03.411Z,17.35
2022-12-06T23:51:34.238Z,17.12
2022-12-06T23:54:02.585Z,18.55
2022-12-06T23:56:32.339Z,17.65
2022-12-06T23:59:00.080Z,16.10
